Time;durP1;ratioP1;P1;durP2;ratioP2;P2;SDS_P1;SDS_P2;PMS_P1;PMS_P2;Temp;Humidity;BMP_temperature;BMP_pressure;BME280_temperature;BME280_humidity;BME280_pressure;Samples;Min_cycle;Max_cycle;Signal;HPM_P1;HPM_P2
2021/07/29 00:01:28;;;;;;;7.35;2.88;;;16.30;99.90;;;16.04;87.52;101208.94;4167539;28;20029;-72
2021/07/29 00:03:29;;;;;;;7.75;2.72;;;16.30;99.90;;;16.10;87.60;101212.72;4184040;28;20048;-72
2021/07/29 00:05:31;;;;;;;7.78;2.47;;;16.20;99.90;;;16.04;87.67;101208.13;4168778;28;20048;-72
2021/07/29 00:07:32;;;;;;;6.32;2.60;;;16.20;99.90;;;16.02;87.66;101204.81;4168809;28;20082;-72
2021/07/29 00:09:33;;;;;;;6.00;2.38;;;16.20;99.90;;;16.06;88.04;101211.44;4167482;28;20025;-72
2021/07/29 00:11:35;;;;;;;4.78;2.30;;;16.10;99.90;;;16.07;88.20;101198.97;4168544;28;20176;-72
2021/07/29 00:13:38;;;;;;;7.70;2.50;;;16.20;99.90;;;16.10;88.09;101209.25;4168708;28;20021;-72
2021/07/29 00:15:38;;;;;;;6.35;2.30;;;16.10;99.90;;;16.10;87.14;101207.41;4167601;28;20075;-72
2021/07/29 00:19:50;;;;;;;5.70;2.35;;;16.20;99.90;;;16.10;87.78;101212.72;4167310;28;20114;-72
2021/07/29 00:21:52;;;;;;;7.05;2.95;;;16.10;99.90;;;15.97;88.27;101209.88;4167365;28;20022;-72
2021/07/29 00:23:53;;;;;;;6.00;2.83;;;16.10;99.90;;;16.04;88.84;101206.28;4167098;28;20034;-72
2021/07/29 00:25:54;;;;;;;10.32;3.25;;;16.10;99.90;;;16.14;87.56;101208.72;4168119;28;20048;-72
2021/07/29 00:27:56;;;;;;;6.57;2.83;;;16.10;99.90;;;16.11;88.19;101201.09;4168546;28;20507;-72
2021/07/29 00:29:56;;;;;;;6.82;2.55;;;16.10;99.90;;;16.17;88.09;101203.03;4167112;28;20060;-72
2021/07/29 00:31:57;;;;;;;8.00;2.80;;;16.10;99.90;;;16.10;88.11;101202.06;4167442;28;20030;-72
2021/07/29 00:34:00;;;;;;;6.65;2.50;;;16.20;99.90;;;16.11;88.51;101214.38;4183741;28;20033;-72
2021/07/29 00:36:01;;;;;;;4.30;2.47;;;16.10;99.90;;;16.03;88.72;101214.47;4167197;28;20037;-72
2021/07/29 00:38:02;;;;;;;5.10;2.65;;;16.10;99.90;;;15.91;89.21;101205.25;4168530;28;20032;-73
2021/07/29 00:40:04;;;;;;;7.00;2.33;;;16.10;99.90;;;16.01;89.31;101216.47;4168543;28;20037;-72
2021/07/29 00:42:05;;;;;;;9.07;3.42;;;16.10;99.90;;;15.94;88.93;101213.72;4150475;28;20105;-72
2021/07/29 00:44:07;;;;;;;6.32;2.55;;;16.10;99.90;;;15.93;89.06;101211.22;4168299;28;20125;-72
2021/07/29 00:46:11;;;;;;;8.10;3.15;;;16.00;99.90;;;15.89;89.21;101217.91;4168378;28;20056;-72
2021/07/29 00:48:13;;;;;;;3.70;2.03;;;16.00;99.90;;;15.83;89.61;101211.47;4167252;28;20026;-72
2021/07/29 00:50:15;;;;;;;5.47;2.35;;;16.00;99.90;;;15.84;89.83;101218.44;4167283;28;20029;-72
2021/07/29 00:52:21;;;;;;;6.72;2.65;;;15.90;99.90;;;15.86;89.96;101210.31;4173543;28;20060;-72
2021/07/29 00:54:27;;;;;;;7.05;2.75;;;15.90;99.90;;;15.76;89.92;101210.53;4167167;28;20105;-72
2021/07/29 00:56:29;;;;;;;5.70;2.80;;;15.90;99.90;;;15.91;89.41;101210.59;4167914;28;20052;-72
2021/07/29 00:58:30;;;;;;;9.13;3.00;;;15.90;99.90;;;15.93;89.25;101211.22;4167173;28;20521;-72
2021/07/29 01:00:31;;;;;;;9.70;3.25;;;16.00;99.90;;;15.67;90.10;101203.63;4183563;28;20495;-72
2021/07/29 01:02:32;;;;;;;9.10;3.13;;;15.90;99.90;;;15.68;90.45;101210.56;4166770;28;20028;-72
2021/07/29 01:04:33;;;;;;;8.90;3.40;;;15.80;99.90;;;15.59;90.53;101197.53;4166046;28;20040;-72
2021/07/29 01:06:34;;;;;;;6.60;2.88;;;15.80;99.90;;;15.60;91.05;101205.31;4167190;28;20025;-72
2021/07/29 01:09:09;;;;;;;6.95;2.63;;;15.80;99.90;;;15.67;90.80;101208.94;4158341;28;20080;-72
2021/07/29 01:11:10;;;;;;;5.28;2.88;;;15.80;99.90;;;15.53;91.29;101204.38;4167752;28;20065;-72
2021/07/29 01:13:11;;;;;;;6.00;2.90;;;15.70;99.90;;;15.57;91.22;101199.53;4168261;28;20443;-72
2021/07/29 01:15:12;;;;;;;6.75;2.83;;;15.80;99.90;;;15.65;91.52;101202.16;4167034;28;20037;-72
2021/07/29 01:17:13;;;;;;;6.68;2.70;;;15.80;99.90;;;15.73;91.30;101205.56;4168169;28;20436;-72
2021/07/29 01:19:14;;;;;;;7.22;3.55;;;15.90;99.90;;;15.73;91.11;101205.56;4166770;28;20089;-72
2021/07/29 01:21:15;;;;;;;5.55;3.10;;;15.90;99.90;;;15.70;91.63;101195.28;4168265;28;20029;-72
2021/07/29 01:23:16;;;;;;;6.40;3.10;;;15.90;99.90;;;15.76;90.22;101199.06;4168122;28;20068;-72
2021/07/29 01:25:17;;;;;;;5.47;3.08;;;15.90;99.90;;;15.69;91.11;101198.09;4167709;28;20026;-72
2021/07/29 01:27:18;;;;;;;7.75;2.83;;;15.90;99.90;;;15.71;90.95;101190.81;4168027;28;20481;-72
2021/07/29 01:29:19;;;;;;;8.60;3.13;;;15.90;99.90;;;15.76;91.45;101199.06;4168137;28;20033;-72
2021/07/29 01:31:20;;;;;;;8.05;3.00;;;16.00;99.90;;;15.76;91.30;101193.75;4169088;28;20407;-72
2021/07/29 01:33:21;;;;;;;7.10;2.97;;;15.90;99.90;;;15.77;91.25;101195.41;4169970;28;20037;-72
2021/07/29 01:35:22;;;;;;;7.78;3.35;;;15.90;99.90;;;15.69;91.56;101193.63;4170990;28;20025;-73
2021/07/29 01:37:24;;;;;;;6.80;2.90;;;15.90;99.90;;;15.59;91.94;101193.03;4170062;28;20029;-72
2021/07/29 01:39:25;;;;;;;7.28;3.15;;;15.90;99.90;;;15.59;92.79;101192.22;4186453;28;20519;-72
2021/07/29 01:41:26;;;;;;;7.28;3.22;;;15.80;99.90;;;15.61;92.75;101184.88;4169577;28;20116;-72
2021/07/29 01:43:28;;;;;;;10.27;3.30;;;15.80;99.90;;;15.64;92.63;101179.22;4186002;28;20040;-73
2021/07/29 01:45:31;;;;;;;7.07;2.92;;;15.90;99.90;;;15.65;92.58;101186.19;4171048;28;20481;-72
2021/07/29 01:47:32;;;;;;;6.43;2.78;;;15.90;99.90;;;15.65;93.11;101192.31;4171016;28;20029;-72
2021/07/29 01:49:32;;;;;;;7.47;3.83;;;15.90;99.90;;;15.68;92.51;101180.53;4170924;28;20026;-72
2021/07/29 01:51:34;;;;;;;8.85;3.70;;;15.90;99.90;;;15.69;92.64;101188.31;4170779;28;20022;-72
2021/07/29 01:53:35;;;;;;;5.07;2.88;;;15.90;99.90;;;15.59;93.24;101184.25;4169668;28;20079;-72
2021/07/29 01:55:39;;;;;;;11.32;3.58;;;15.80;99.90;;;15.58;93.73;101183.41;4170523;28;20025;-72
2021/07/29 01:57:39;;;;;;;;;;;15.80;99.90;;;15.56;93.79;101195.25;4170043;28;20025;-72
2021/07/29 01:59:40;;;;;;;6.00;3.90;;;15.80;99.90;;;15.50;94.35;101188.78;4170618;28;19916;-72
2021/07/29 02:01:41;;;;;;;5.35;3.42;;;15.80;99.90;;;15.47;93.98;101184.63;4169603;28;20028;-72
2021/07/29 02:03:42;;;;;;;5.65;3.13;;;15.70;99.90;;;15.41;94.44;101187.97;4170626;28;20037;-72
2021/07/29 02:05:43;;;;;;;7.47;3.70;;;15.70;99.90;;;15.51;94.39;101195.75;4170665;28;20018;-73
2021/07/29 02:07:44;;;;;;;9.75;3.30;;;15.70;99.90;;;15.53;94.25;101184.94;4170524;28;20029;-72
2021/07/29 02:09:45;;;;;;;9.80;3.67;;;15.70;99.90;;;15.60;94.04;101193.84;4169399;28;20033;-72
2021/07/29 02:11:49;;;;;;;6.63;2.72;;;15.70;99.90;;;15.54;94.36;101190.09;4170333;28;20060;-72
2021/07/29 02:13:50;;;;;;;7.30;2.85;;;15.70;99.90;;;15.65;93.36;101187.00;4169317;28;20515;-73
2021/07/29 02:15:51;;;;;;;7.13;3.88;;;15.70;99.90;;;15.67;93.25;101190.31;4170385;28;20040;-72
2021/07/29 02:17:56;;;;;;;5.60;3.05;;;15.70;99.90;;;15.58;93.76;101190.56;4152835;28;20060;-72
2021/07/29 02:19:57;;;;;;;7.13;2.80;;;15.70;99.90;;;15.46;94.27;101195.44;4169231;28;20068;-72
2021/07/29 02:21:58;;;;;;;6.43;3.72;;;15.60;99.90;;;15.23;95.41;101182.09;4170311;28;20026;-72
2021/07/29 02:23:59;;;;;;;8.30;2.90;;;15.60;99.90;;;15.27;95.97;101183.41;4170060;28;20036;-72
2021/07/29 02:26:00;;;;;;;6.05;2.58;;;15.50;99.90;;;15.30;95.81;101179.56;4168933;28;20026;-72
2021/07/29 02:28:01;;;;;;;7.55;3.00;;;15.50;99.90;;;15.35;95.67;101183.34;4170283;28;20037;-72
2021/07/29 02:30:02;;;;;;;4.45;2.78;;;15.50;99.90;;;15.31;95.60;101171.44;4170292;28;20018;-73
2021/07/29 02:32:04;;;;;;;5.55;3.15;;;15.50;99.90;;;15.20;96.17;101184.31;4168925;28;20032;-72
2021/07/29 02:34:05;;;;;;;6.20;2.53;;;15.50;99.90;;;15.17;96.65;101180.13;4168993;28;20025;-72
2021/07/29 02:36:06;;;;;;;6.15;2.33;;;15.50;99.90;;;15.28;96.04;101185.09;4170212;28;20029;-72
2021/07/29 02:38:06;;;;;;;6.22;2.58;;;15.50;99.90;;;15.24;96.08;101182.94;4170027;28;20029;-73
2021/07/29 02:40:08;;;;;;;5.57;2.90;;;15.50;99.90;;;15.25;96.68;101185.44;4169767;28;20029;-72
2021/07/29 02:42:09;;;;;;;9.10;3.33;;;15.40;99.90;;;15.28;96.64;101189.56;4169950;28;20417;-72
2021/07/29 02:44:10;;;;;;;3.60;2.47;;;15.40;99.90;;;15.23;96.78;101187.41;4168646;28;20080;-72
2021/07/29 02:46:12;;;;;;;6.63;2.85;;;15.40;99.90;;;15.29;96.39;101189.38;4170081;28;20021;-72
2021/07/29 02:48:13;;;;;;;6.65;3.20;;;15.40;99.90;;;15.29;96.61;101192.03;4168797;28;20532;-73
2021/07/29 02:50:14;;;;;;;5.82;2.78;;;15.40;99.90;;;15.26;96.52;101183.59;4170122;28;20022;-72
2021/07/29 02:52:15;;;;;;;7.03;3.47;;;15.40;99.90;;;15.27;96.07;101186.06;4168855;28;20583;-72
2021/07/29 02:54:16;;;;;;;10.07;3.00;;;15.40;99.90;;;15.27;95.41;101167.47;4169940;28;20029;-72
2021/07/29 02:56:17;;;;;;;9.27;2.92;;;15.40;99.90;;;15.23;95.78;101178.66;4168310;28;20039;-72
2021/07/29 02:58:17;;;;;;;4.80;2.67;;;15.40;99.90;;;15.26;95.59;101171.13;4185324;28;20525;-72
2021/07/29 03:00:18;;;;;;;7.18;2.97;;;15.30;99.90;;;15.18;95.82;101176.50;4168684;28;20044;-73
2021/07/29 03:02:19;;;;;;;6.57;3.03;;;15.30;99.90;;;15.14;96.55;101172.53;4163514;28;20079;-72
2021/07/29 03:04:20;;;;;;;8.55;3.15;;;15.30;99.90;;;15.18;96.58;101160.56;4169676;28;20452;-73
2021/07/29 03:06:21;;;;;;;8.85;3.25;;;15.30;99.90;;;15.25;96.37;101164.16;4169640;28;20116;-73
2021/07/29 03:08:22;;;;;;;5.82;2.50;;;15.40;99.90;;;15.29;96.32;101172.63;4169728;28;20056;-72
2021/07/29 03:10:23;;;;;;;7.32;2.83;;;15.40;99.90;;;15.37;95.08;101180.53;4168178;28;20080;-73
2021/07/29 03:12:24;;;;;;;6.25;2.60;;;15.40;99.90;;;15.32;95.22;101174.94;4168243;28;20026;-72
2021/07/29 03:14:26;;;;;;;5.45;2.60;;;15.40;99.90;;;15.20;95.42;101177.13;4168262;28;20071;-72
2021/07/29 03:16:27;;;;;;;5.25;2.13;;;15.30;99.90;;;15.11;95.30;101178.22;4169551;28;20053;-73
2021/07/29 03:18:28;;;;;;;6.72;2.53;;;15.30;99.90;;;15.02;95.49;101170.44;4168388;28;20029;-72
2021/07/29 03:20:29;;;;;;;6.60;3.50;;;15.20;99.90;;;15.00;95.51;101169.78;4184853;28;20083;-72
2021/07/29 03:22:30;;;;;;;6.13;2.78;;;15.10;99.90;;;14.87;96.21;101170.38;4168080;28;20025;-72
2021/07/29 03:24:33;;;;;;;4.70;2.72;;;15.10;99.90;;;14.71;97.03;101168.59;4184801;28;20025;-72
2021/07/29 03:26:34;;;;;;;7.55;3.00;;;15.00;99.90;;;14.81;96.67;101176.38;4160283;28;20029;-72
2021/07/29 03:28:35;;;;;;;6.30;3.10;;;15.00;99.90;;;14.78;96.68;101172.19;4169398;28;20029;-73
2021/07/29 03:30:36;;;;;;;7.88;3.17;;;14.90;99.90;;;14.66;97.41;101167.47;4169253;28;20036;-72
2021/07/29 03:32:36;;;;;;;9.40;2.97;;;14.90;99.90;;;14.65;98.00;101171.13;4151803;28;20033;-72
2021/07/29 03:34:37;;;;;;;9.27;2.80;;;14.80;99.90;;;14.57;98.53;101168.50;4168202;28;20029;-72
2021/07/29 03:36:38;;;;;;;4.90;2.67;;;14.80;99.90;;;14.59;98.09;101163.84;4167913;28;20045;-73
2021/07/29 03:38:39;;;;;;;6.55;2.63;;;14.80;99.90;;;14.63;98.25;101167.81;4169160;28;20560;-72
2021/07/29 03:40:41;;;;;;;4.82;2.80;;;14.80;99.90;;;14.72;97.41;101175.56;4167976;28;20030;-72
2021/07/29 03:42:42;;;;;;;8.63;2.78;;;14.80;99.90;;;14.73;97.15;101173.72;4184404;28;20021;-73
2021/07/29 03:44:43;;;;;;;4.90;2.40;;;14.80;99.90;;;14.74;97.02;101172.75;4168946;28;20051;-72
2021/07/29 03:46:44;;;;;;;5.53;2.75;;;14.80;99.90;;;14.69;96.98;101169.78;4169097;28;20033;-72
2021/07/29 03:48:45;;;;;;;6.20;2.75;;;14.80;99.90;;;14.67;97.07;101177.06;4167904;28;20037;-72
2021/07/29 03:50:47;;;;;;;7.00;2.90;;;14.80;99.90;;;14.72;96.66;101169.44;4169020;28;20083;-72
2021/07/29 03:52:48;;;;;;;8.00;2.97;;;14.80;99.90;;;14.72;95.79;101178.22;4167684;28;20512;-72
2021/07/29 03:54:50;;;;;;;7.07;3.08;;;14.80;99.90;;;14.68;95.19;101166.28;4167120;28;20076;-72
2021/07/29 03:56:51;;;;;;;4.72;2.20;;;14.90;99.90;;;14.80;94.69;101180.84;4168738;28;20041;-72
2021/07/29 03:58:52;;;;;;;6.35;2.65;;;14.90;99.90;;;14.81;94.46;101176.38;4168857;28;20026;-73
2021/07/29 04:00:56;;;;;;;3.78;2.00;;;14.90;99.90;;;14.77;94.92;101173.22;4168653;28;20029;-73
2021/07/29 04:02:59;;;;;;;3.97;2.47;;;15.00;99.90;;;14.77;95.13;101180.34;4167440;28;20033;-72
2021/07/29 04:05:01;;;;;;;5.50;2.90;;;15.00;99.90;;;14.81;95.72;101185.13;4167598;28;20025;-72
2021/07/29 04:07:03;;;;;;;8.48;3.03;;;15.00;99.90;;;14.80;96.60;101186.16;4167572;28;20028;-72
2021/07/29 04:09:04;;;;;;;4.97;2.47;;;15.00;99.90;;;14.74;96.61;101180.69;4164054;28;20030;-73
2021/07/29 04:11:08;;;;;;;6.72;3.40;;;15.00;99.90;;;14.78;97.00;101182.81;4168314;28;20032;-72
2021/07/29 04:13:09;;;;;;;7.25;2.67;;;15.10;99.90;;;14.88;97.45;101183.47;4168866;28;20029;-72
2021/07/29 04:15:10;;;;;;;6.68;2.65;;;15.10;99.90;;;15.01;96.83;101185.56;4168702;28;20057;-73
2021/07/29 04:17:12;;;;;;;6.85;3.38;;;15.20;99.90;;;15.08;96.39;101191.84;4167377;28;20430;-72
2021/07/29 04:19:12;;;;;;;5.53;3.03;;;15.30;99.90;;;15.07;96.80;101187.53;4182459;28;20416;-73
2021/07/29 04:21:17;;;;;;;7.63;2.80;;;15.30;99.90;;;15.08;96.89;101180.38;4167579;28;20041;-72
2021/07/29 04:23:18;;;;;;;6.72;2.92;;;15.40;99.90;;;15.04;96.89;101182.56;4183641;28;20029;-72
2021/07/29 04:25:19;;;;;;;6.82;3.22;;;15.40;99.90;;;15.01;97.70;101190.88;4167023;28;20033;-72
2021/07/29 04:27:20;;;;;;;4.68;2.30;;;15.40;99.90;;;14.93;98.07;101183.75;4165620;28;20471;-72
2021/07/29 04:29:22;;;;;;;7.43;2.65;;;15.30;99.90;;;15.03;98.27;101185.38;4167406;28;20030;-73
2021/07/29 04:31:22;;;;;;;9.13;2.80;;;15.40;99.90;;;15.10;98.14;101171.22;4160077;28;20057;-72
2021/07/29 04:33:23;;;;;;;7.00;3.05;;;15.40;99.90;;;15.13;97.83;101181.50;4168454;28;20029;-72
2021/07/29 04:35:24;;;;;;;6.45;2.80;;;15.40;99.90;;;15.13;98.21;101189.50;4167021;28;20033;-73
2021/07/29 04:37:25;;;;;;;7.47;2.65;;;15.40;99.90;;;15.15;98.26;101187.47;4168554;28;20033;-72
2021/07/29 04:39:27;;;;;;;6.45;2.85;;;15.50;99.90;;;15.22;97.91;101185.78;4168655;28;20037;-72
2021/07/29 04:41:28;;;;;;;5.32;2.30;;;15.50;99.90;;;15.27;97.79;101185.25;4166925;28;20033;-73
2021/07/29 04:43:29;;;;;;;7.43;3.65;;;15.50;99.90;;;15.18;98.01;101184.47;4168046;28;20064;-73
2021/07/29 04:45:30;;;;;;;9.32;3.00;;;15.50;99.90;;;15.14;98.54;101188.47;4167316;28;20553;-72
2021/07/29 04:47:31;;;;;;;5.55;2.30;;;15.50;99.90;;;15.22;97.96;101191.09;4168443;28;20671;-73
2021/07/29 04:49:32;;;;;;;8.82;2.47;;;15.50;99.90;;;15.21;98.15;101184.13;4168436;28;20033;-72
2021/07/29 04:51:37;;;;;;;4.72;2.25;;;15.50;99.90;;;15.23;98.08;101186.63;4167103;28;20025;-72
2021/07/29 04:53:38;;;;;;;6.75;2.50;;;15.50;99.90;;;15.30;97.49;101184.88;4183449;28;20464;-72
2021/07/29 04:55:39;;;;;;;6.07;2.22;;;15.50;99.90;;;15.25;97.15;101188.09;4168104;28;20038;-73
2021/07/29 04:57:40;;;;;;;6.32;2.53;;;15.50;99.90;;;15.14;97.63;101183.16;4168311;28;20033;-72
2021/07/29 04:59:41;;;;;;;7.75;3.08;;;15.50;99.90;;;15.10;97.83;101192.50;4168166;28;20036;-72
2021/07/29 05:01:42;;;;;;;8.88;3.40;;;15.40;99.90;;;15.01;98.17;101188.22;4168032;28;20030;-72
2021/07/29 05:03:43;;;;;;;5.05;2.50;;;15.40;99.90;;;15.03;98.42;101188.88;4168194;28;20033;-72
2021/07/29 05:05:44;;;;;;;5.45;2.40;;;15.30;99.90;;;15.16;97.75;101190.97;4168315;28;20052;-73
2021/07/29 05:07:45;;;;;;;5.80;2.60;;;15.40;99.90;;;15.18;97.59;101181.81;4171426;28;20022;-72
2021/07/29 05:09:46;;;;;;;3.90;2.22;;;15.40;99.90;;;15.18;97.79;101188.94;4170349;28;20028;-72
2021/07/29 05:11:47;;;;;;;5.32;2.15;;;15.50;99.90;;;15.24;97.48;101186.41;4171210;28;20551;-73
2021/07/29 05:13:48;;;;;;;7.53;2.63;;;15.50;99.90;;;15.14;97.77;101183.16;4171338;28;20025;-72
2021/07/29 05:15:48;;;;;;;7.38;2.50;;;15.60;99.90;;;15.11;98.14;101182.69;4171324;28;20052;-72
2021/07/29 05:17:54;;;;;;;5.03;2.63;;;15.50;99.90;;;15.07;98.33;101184.03;4171528;28;20057;-72
2021/07/29 05:19:55;;;;;;;5.75;3.25;;;15.50;99.90;;;15.17;98.52;101182.00;4171463;28;20061;-72
2021/07/29 05:21:56;;;;;;;5.95;2.53;;;15.60;99.90;;;15.23;98.06;101187.41;4170199;28;20114;-72
2021/07/29 05:23:57;;;;;;;8.45;2.45;;;15.60;99.90;;;15.32;97.88;101186.38;4170982;28;20029;-72
2021/07/29 05:25:59;;;;;;;7.53;2.90;;;15.60;99.90;;;15.37;98.01;101188.50;4169929;28;20462;-72
2021/07/29 05:27:59;;;;;;;7.90;2.33;;;15.70;99.90;;;15.44;97.81;101190.28;4170057;28;20018;-72
2021/07/29 05:30:00;;;;;;;5.22;2.33;;;15.80;99.90;;;15.57;97.52;101192.38;4200964;28;20076;-72
2021/07/29 05:32:01;;;;;;;6.53;2.67;;;15.80;99.90;;;15.60;96.74;101189.38;4180584;28;20459;-73
2021/07/29 05:34:02;;;;;;;6.10;2.67;;;15.90;99.90;;;15.66;96.78;101190.50;4170120;28;20029;-72
2021/07/29 05:36:05;;;;;;;7.68;3.25;;;16.00;99.90;;;15.67;96.70;101187.66;4169923;28;20029;-73
2021/07/29 05:38:05;;;;;;;6.65;2.17;;;16.00;99.90;;;15.75;96.17;101184.09;4153466;28;20041;-72
2021/07/29 05:40:08;;;;;;;4.78;2.05;;;16.10;99.90;;;15.81;95.72;101188.72;4167169;28;20029;-72
2021/07/29 05:42:08;;;;;;;9.90;3.20;;;16.20;99.90;;;15.85;95.79;101193.50;4169553;28;20042;-72
2021/07/29 05:44:12;;;;;;;6.93;1.98;;;16.20;99.90;;;15.92;95.35;101196.25;4170766;28;20083;-73
2021/07/29 05:46:13;;;;;;;7.82;2.53;;;16.30;99.90;;;15.87;95.42;101195.97;4169811;28;20048;-72
2021/07/29 05:48:14;;;;;;;6.70;2.30;;;16.30;99.90;;;15.85;95.50;101198.00;4169690;28;20026;-72
2021/07/29 05:50:15;;;;;;;6.38;2.22;;;16.30;99.90;;;15.80;94.92;101192.41;4170889;28;20040;-72
2021/07/29 05:52:16;;;;;;;7.32;3.08;;;16.20;99.90;;;15.83;93.86;101192.84;4170580;28;20028;-72
2021/07/29 05:54:17;;;;;;;3.58;2.22;;;16.30;99.90;;;15.79;94.37;101196.88;4170702;28;20404;-72
2021/07/29 05:56:18;;;;;;;6.68;2.70;;;16.20;99.90;;;15.81;94.70;101196.69;4169126;28;20033;-72
2021/07/29 05:58:19;;;;;;;10.43;2.67;;;16.30;99.90;;;16.01;92.81;101195.19;4185903;28;20052;-72
2021/07/29 06:00:20;;;;;;;6.15;2.00;;;16.30;99.90;;;16.07;93.27;101186.47;4170709;28;20029;-72
2021/07/29 06:02:21;;;;;;;7.32;2.80;;;16.50;99.90;;;16.20;93.05;101192.00;4170398;28;20405;-72
2021/07/29 06:04:22;;;;;;;7.18;2.67;;;16.60;99.90;;;16.33;91.33;101189.56;4170530;28;20022;-72
2021/07/29 06:06:23;;;;;;;6.32;2.30;;;16.80;99.90;;;16.40;90.95;101181.63;4170569;28;20111;-72
2021/07/29 06:08:23;;;;;;;10.07;3.08;;;16.80;99.90;;;16.51;90.64;101190.03;4170513;28;20517;-72
2021/07/29 06:10:25;;;;;;;4.70;2.15;;;17.00;99.90;;;16.58;90.64;101196.28;4169097;28;20037;-72
2021/07/29 06:12:27;;;;;;;9.43;2.05;;;17.00;99.90;;;16.72;89.81;101191.97;4168940;28;20116;-72
2021/07/29 06:14:28;;;;;;;8.63;2.40;;;17.20;99.90;;;16.71;89.34;101186.81;4170241;28;20029;-72
2021/07/29 06:16:30;;;;;;;4.82;2.08;;;17.20;99.90;;;16.72;89.58;101184.00;4170279;28;20024;-72
2021/07/29 06:18:33;;;;;;;5.95;1.77;;;17.30;99.90;;;16.71;89.12;101184.16;4170120;28;20108;-72
2021/07/29 06:20:34;;;;;;;7.35;1.92;;;17.30;99.90;;;16.79;89.32;101186.72;4169943;28;20057;-72
2021/07/29 06:22:35;;;;;;;6.35;2.55;;;17.30;99.90;;;16.89;87.82;101189.94;4168747;28;20049;-72
2021/07/29 06:24:36;;;;;;;4.40;1.92;;;17.40;99.90;;;16.89;87.98;101198.75;4184054;28;20516;-72
2021/07/29 06:26:38;;;;;;;5.32;2.05;;;17.40;99.90;;;16.89;88.11;101201.41;4161690;28;20025;-72
2021/07/29 06:28:39;;;;;;;6.85;2.63;;;17.40;99.90;;;16.92;87.77;101197.56;4170152;28;20075;-72
2021/07/29 06:30:43;;;;;;;7.88;2.33;;;17.50;99.90;;;17.04;85.93;101196.06;4169005;28;20145;-72
2021/07/29 06:32:44;;;;;;;10.30;2.47;;;17.50;99.90;;;17.10;86.40;101203.31;4170263;28;20047;-72
2021/07/29 06:34:45;;;;;;;7.97;2.92;;;17.60;99.90;;;17.00;87.19;101198.28;4169926;28;20044;-72
2021/07/29 06:36:46;;;;;;;6.82;2.17;;;17.60;99.90;;;17.05;86.59;101197.72;4168824;28;20512;-72
2021/07/29 06:38:47;;;;;;;7.43;2.53;;;17.60;99.90;;;17.10;87.01;101208.66;4185314;28;20025;-72
2021/07/29 06:40:48;;;;;;;7.47;1.88;;;17.60;99.90;;;17.16;86.78;101199.91;4169881;28;20025;-72
2021/07/29 06:42:49;;;;;;;8.90;2.10;;;17.70;99.90;;;17.15;86.99;101201.72;4169746;28;20021;-72
2021/07/29 06:44:50;;;;;;;8.43;2.20;;;17.70;99.90;;;17.06;86.65;101205.53;4169995;28;20401;-72
2021/07/29 06:46:51;;;;;;;10.15;3.88;;;17.70;99.90;;;17.03;86.53;101208.56;4168817;28;20032;-72
2021/07/29 06:48:51;;;;;;;9.93;4.07;;;17.70;99.90;;;16.99;86.44;101206.47;4185181;28;20065;-72
2021/07/29 06:50:53;;;;;;;9.02;5.20;;;17.60;99.90;;;17.00;86.34;101210.75;4168673;28;20029;-72
2021/07/29 06:52:53;;;;;;;10.93;5.20;;;17.60;99.90;;;17.02;86.19;101206.09;4168676;28;20029;-72
2021/07/29 06:54:54;;;;;;;8.80;3.47;;;17.60;99.90;;;16.96;85.37;101206.84;4184710;28;20028;-72
2021/07/29 06:56:55;;;;;;;6.82;3.25;;;17.60;99.90;;;17.06;84.29;101205.53;4168705;28;20111;-72
2021/07/29 06:58:56;;;;;;;7.32;3.47;;;17.60;99.90;;;17.10;84.61;101211.31;4162119;28;20024;-72
2021/07/29 07:01:04;;;;;;;6.53;2.75;;;17.60;99.90;;;17.09;85.39;101212.31;4168561;28;20037;-72
2021/07/29 07:03:05;;;;;;;6.57;2.40;;;17.70;99.90;;;17.15;85.31;101220.41;4184709;28;20108;-73
2021/07/29 07:05:06;;;;;;;8.45;2.45;;;17.70;99.90;;;17.25;85.03;101214.78;4168426;28;20448;-72
2021/07/29 07:07:16;;;;;;;6.03;2.10;;;17.80;99.90;;;17.38;84.85;101214.91;4184824;28;20029;-72
2021/07/29 07:09:17;;;;;;;4.35;2.25;;;17.90;99.90;;;17.37;84.68;101218.59;4168350;28;20032;-72
2021/07/29 07:11:18;;;;;;;9.98;2.83;;;18.00;99.90;;;17.48;83.61;101217.28;4169359;28;20030;-72
2021/07/29 07:13:19;;;;;;;11.80;2.53;;;18.00;99.90;;;17.40;83.57;101228.06;4168288;28;20166;-72
2021/07/29 07:15:20;;;;;;;10.15;2.63;;;18.00;99.90;;;17.46;83.44;101216.63;4184793;28;20029;-72
2021/07/29 07:17:21;;;;;;;5.93;1.98;;;18.10;99.90;;;17.50;83.91;101224.06;4169446;28;20030;-72
2021/07/29 07:19:22;;;;;;;5.97;1.80;;;18.10;99.90;;;17.62;83.43;101227.91;4168128;28;20512;-72
2021/07/29 07:21:23;;;;;;;8.95;2.53;;;18.20;99.90;;;17.83;82.85;101228.97;4168083;28;20029;-72
2021/07/29 07:23:23;;;;;;;7.78;2.50;;;18.40;99.90;;;17.92;82.64;101222.47;4168218;28;20032;-72
2021/07/29 07:25:24;;;;;;;6.05;2.15;;;18.50;99.90;;;18.05;81.83;101228.72;4166418;28;20026;-72
2021/07/29 07:27:25;;;;;;;6.50;2.50;;;18.60;99.90;;;18.16;81.01;101222.03;4168066;28;20025;-72
2021/07/29 07:29:26;;;;;;;5.22;2.13;;;18.80;99.90;;;18.24;80.51;101222.72;4140812;28;20034;-72
2021/07/29 07:31:27;;;;;;;9.90;2.25;;;18.80;99.90;;;18.25;78.91;101218.19;4169305;28;20511;-72
2021/07/29 07:33:28;;;;;;;7.38;1.80;;;18.90;99.90;;;18.30;79.66;101221.13;4167916;28;20036;-72
2021/07/29 07:35:29;;;;;;;6.22;1.75;;;19.00;99.90;;;18.36;78.90;101222.19;4167808;28;20412;-72
2021/07/29 07:37:30;;;;;;;8.18;2.13;;;19.10;99.90;;;18.39;78.93;101225.31;4169241;28;20029;-72
2021/07/29 07:39:35;;;;;;;3.38;1.70;;;19.20;99.90;;;18.50;78.98;101235.47;4169177;28;20025;-72
2021/07/29 07:41:36;;;;;;;8.32;2.13;;;19.20;99.90;;;18.57;77.58;101233.69;4167825;28;20026;-73
2021/07/29 07:43:37;;;;;;;4.90;1.50;;;19.30;99.90;;;18.32;77.32;101227.09;4168773;28;20052;-72
2021/07/29 07:45:38;;;;;;;5.25;1.88;;;19.30;99.90;;;18.22;78.28;101234.59;4167635;28;20024;-72
2021/07/29 07:47:39;;;;;;;5.68;1.70;;;19.30;99.90;;;18.33;77.82;101231.41;4168936;28;20482;-72
2021/07/29 07:49:40;;;;;;;10.15;2.45;;;19.30;99.90;;;18.43;77.70;101231.09;4167642;28;20033;-72
2021/07/29 07:51:42;;;;;;;4.95;1.60;;;19.30;99.90;;;18.49;77.75;101220.44;4184176;28;20052;-72
2021/07/29 07:53:43;;;;;;;5.43;2.35;;;19.40;99.90;;;18.56;76.63;101224.00;4168921;28;20030;-72
2021/07/29 07:55:44;;;;;;;7.18;1.73;;;19.40;99.90;;;18.50;77.71;101227.47;4168644;28;20037;-72
2021/07/29 07:57:45;;;;;;;8.63;1.50;;;19.40;99.90;;;18.42;77.24;101224.09;4167614;28;20025;-72
2021/07/29 07:59:46;;;;;;;6.35;1.75;;;19.30;99.90;;;18.50;77.39;101232.81;4168552;28;20562;-72
2021/07/29 08:01:46;;;;;;;8.05;2.00;;;19.30;99.90;;;18.61;76.70;101232.25;4151239;28;20134;-72
2021/07/29 08:03:47;;;;;;;5.28;2.08;;;19.40;99.90;;;18.62;76.37;101225.88;4168706;28;20034;-72
2021/07/29 08:05:48;;;;;;;4.30;1.70;;;19.50;99.90;;;18.90;75.67;101231.19;4167429;28;20021;-72
2021/07/29 08:07:49;;;;;;;8.27;2.22;;;19.60;99.90;;;19.09;75.15;101226.94;4183750;28;20029;-72
2021/07/29 08:09:50;;;;;;;5.60;2.45;;;19.80;99.90;;;19.26;75.87;101234.41;4168547;28;20022;-72
2021/07/29 08:11:52;;;;;;;8.43;1.80;;;20.00;99.90;;;18.96;75.61;101232.25;4167483;28;20029;-72
2021/07/29 08:13:52;;;;;;;5.60;1.85;;;20.10;99.90;;;19.10;74.17;101223.25;4183921;28;20029;-72
2021/07/29 08:15:55;;;;;;;6.50;1.70;;;20.20;99.90;;;19.46;73.77;101229.16;4167356;28;20040;-72
2021/07/29 08:17:55;;;;;;;8.00;2.17;;;20.40;99.90;;;19.45;71.92;101238.19;4155165;28;20046;-72
2021/07/29 08:19:56;;;;;;;6.78;1.67;;;20.40;99.90;;;19.58;72.09;101227.53;4168602;28;20037;-73
2021/07/29 08:21:58;;;;;;;7.18;1.70;;;20.50;99.90;;;19.51;73.78;101226.69;4167338;28;20029;-72
2021/07/29 08:23:59;;;;;;;3.70;1.55;;;20.60;99.90;;;19.43;72.97;101228.72;4168206;28;20025;-72
2021/07/29 08:26:00;;;;;;;7.63;1.92;;;20.40;99.90;;;19.07;73.28;101218.28;4168244;28;20555;-72
2021/07/29 08:28:01;;;;;;;4.35;1.90;;;20.20;99.90;;;19.13;72.71;101223.69;4167216;28;20029;-72